Time;durP1;ratioP1;P1;durP2;ratioP2;P2;SDS_P1;SDS_P2;PMS_P1;PMS_P2;Temp;Humidity;BMP_temperature;BMP_pressure;BME280_temperature;BME280_humidity;BME280_pressure;Samples;Min_cycle;Max_cycle;Signal;HPM_P1;HPM_P2
2023/01/31 00:01:55;;;;;;;43.30;24.15;;;2.30;99.90;;;;;;4858474;29;20053;-73
2023/01/31 00:04:25;;;;;;;46.70;24.70;;;2.30;99.90;;;;;;4846991;29;20046;-70
2023/01/31 00:06:52;;;;;;;41.30;24.77;;;2.30;99.90;;;;;;4858841;29;20073;-72
2023/01/31 00:09:20;;;;;;;47.50;25.88;;;2.40;99.90;;;;;;4858792;29;20094;-73
2023/01/31 00:11:47;;;;;;;41.13;23.52;;;2.40;99.90;;;;;;4847285;29;20057;-72
2023/01/31 00:14:19;;;;;;;46.03;26.05;;;2.30;99.90;;;;;;4854284;29;20049;-74
2023/01/31 00:16:47;;;;;;;40.75;24.17;;;2.30;99.90;;;;;;4741397;23;4646120;-73
2023/01/31 00:19:17;;;;;;;44.17;24.05;;;2.20;99.90;;;;;;4845789;29;20537;-72
2023/01/31 00:21:44;;;;;;;36.15;22.23;;;2.20;99.90;;;;;;4855337;29;20496;-72
2023/01/31 00:24:16;;;;;;;40.28;23.00;;;2.20;99.90;;;;;;4876247;29;20542;-72
2023/01/31 00:26:49;;;;;;;44.08;23.52;;;2.20;99.90;;;;;;4876750;29;20132;-72
2023/01/31 00:29:19;;;;;;;52.45;26.88;;;2.10;99.90;;;;;;4876380;29;20059;-70
2023/01/31 00:31:46;;;;;;;48.00;27.97;;;2.10;99.90;;;;;;4855396;29;20037;-70
2023/01/31 00:34:20;;;;;;;54.45;28.40;;;2.00;99.90;;;;;;4861265;29;20055;-71
2023/01/31 00:36:48;;;;;;;59.97;27.85;;;1.90;99.90;;;;;;4873154;29;20115;-74
2023/01/31 00:39:17;;;;;;;55.92;30.67;;;2.00;99.90;;;;;;4866953;29;20057;-72
2023/01/31 00:41:48;;;;;;;57.95;30.10;;;1.90;99.90;;;;;;4872640;29;20048;-72
2023/01/31 00:44:15;;;;;;;56.35;29.65;;;1.70;99.90;;;;;;4841630;29;20397;-74
2023/01/31 00:46:43;;;;;;;62.67;30.45;;;1.80;99.90;;;;;;4872894;29;20060;-73
2023/01/31 00:49:10;;;;;;;76.00;36.72;;;1.90;99.90;;;;;;4858097;29;20047;-72
2023/01/31 00:51:37;;;;;;;66.00;36.92;;;2.00;99.90;;;;;;4857406;29;20117;-74
2023/01/31 00:54:05;;;;;;;55.78;31.70;;;2.10;99.90;;;;;;4889980;29;20052;-72
2023/01/31 00:56:32;;;;;;;52.67;29.83;;;2.10;99.90;;;;;;4853168;29;20147;-72
2023/01/31 00:59:07;;;;;;;50.55;30.63;;;2.10;99.90;;;;;;4876134;29;20041;-74
2023/01/31 01:01:35;;;;;;;54.42;29.60;;;2.20;99.90;;;;;;4875830;29;20182;-72
2023/01/31 01:04:03;;;;;;;51.92;28.73;;;2.20;99.90;;;;;;4871280;29;20135;-72
2023/01/31 01:06:33;;;;;;;55.58;29.58;;;2.20;99.90;;;;;;4892343;29;20075;-72
2023/01/31 01:09:02;;;;;;;48.17;26.55;;;2.10;99.90;;;;;;4872432;29;20068;-74
2023/01/31 01:11:31;;;;;;;42.38;23.50;;;2.10;99.90;;;;;;4879197;29;20116;-72
2023/01/31 01:14:01;;;;;;;38.95;23.02;;;2.00;99.90;;;;;;4885116;29;20449;-71
2023/01/31 01:16:36;;;;;;;51.95;24.70;;;1.70;99.90;;;;;;4869303;29;20061;-72
2023/01/31 01:19:09;;;;;;;46.38;24.00;;;1.50;99.90;;;;;;4865479;29;20116;-69
2023/01/31 01:21:38;;;;;;;34.83;21.60;;;1.50;99.90;;;;;;4863775;29;20097;-72
2023/01/31 01:24:11;;;;;;;41.50;23.42;;;1.40;99.90;;;;;;4870647;29;20418;-73
2023/01/31 01:26:38;;;;;;;43.83;25.52;;;1.20;99.90;;;;;;4863761;29;20045;-73
2023/01/31 01:29:06;;;;;;;44.25;24.77;;;1.30;99.90;;;;;;4864011;29;20056;-73
2023/01/31 01:31:33;;;;;;;53.53;26.70;;;1.20;99.90;;;;;;4847287;29;20045;-73
2023/01/31 01:34:07;;;;;;;48.72;26.13;;;1.50;99.90;;;;;;4849035;29;20049;-73
2023/01/31 01:36:44;;;;;;;53.22;27.35;;;1.60;99.90;;;;;;4859367;29;20045;-74
2023/01/31 01:39:14;;;;;;;48.90;26.25;;;1.70;99.90;;;;;;4862491;29;20057;-75
2023/01/31 01:41:41;;;;;;;50.13;28.15;;;1.80;99.90;;;;;;4848404;29;20521;-75
2023/01/31 01:44:45;;;;;;;51.15;27.65;;;1.80;99.90;;;;;;4879411;29;20041;-73
2023/01/31 01:47:43;;;;;;;50.00;27.73;;;1.90;99.90;;;;;;4847967;29;20511;-71
2023/01/31 01:50:16;;;;;;;56.40;28.00;;;1.90;99.90;;;;;;4863466;29;20564;-71
2023/01/31 01:52:59;;;;;;;57.28;27.63;;;1.80;99.90;;;;;;4879459;29;20052;-70
2023/01/31 01:56:01;;;;;;;46.83;26.45;;;1.70;99.90;;;;;;4863102;29;20074;-72
2023/01/31 01:58:41;;;;;;;47.03;25.73;;;1.90;99.90;;;;;;4878261;29;20066;-73
2023/01/31 02:01:12;;;;;;;50.00;26.65;;;2.00;99.90;;;;;;4855431;29;20104;-71
2023/01/31 02:03:40;;;;;;;49.80;26.85;;;1.90;99.90;;;;;;4879457;29;20067;-71
2023/01/31 02:06:09;;;;;;;53.72;26.73;;;1.70;99.90;;;;;;4848174;29;20061;-74
2023/01/31 02:08:39;;;;;;;52.78;26.20;;;1.60;99.90;;;;;;4862840;29;20045;-74
2023/01/31 02:11:16;;;;;;;47.42;25.17;;;1.50;99.90;;;;;;4862971;29;20052;-70
2023/01/31 02:13:59;;;;;;;54.65;27.92;;;1.50;99.90;;;;;;4862380;29;20418;-70
2023/01/31 02:16:29;;;;;;;46.55;25.80;;;1.70;99.90;;;;;;4868934;29;20056;-73
2023/01/31 02:18:57;;;;;;;44.80;25.17;;;1.90;99.90;;;;;;4864623;29;20143;-73
2023/01/31 02:21:30;;;;;;;50.15;27.42;;;2.00;99.90;;;;;;4881253;29;20055;-71
2023/01/31 02:24:16;;;;;;;46.38;25.98;;;2.10;99.90;;;;;;4868589;29;20049;-74
2023/01/31 02:27:15;;;;;;;45.60;25.85;;;2.00;99.90;;;;;;4880759;29;20064;-73
2023/01/31 02:29:45;;;;;;;46.50;25.08;;;2.00;99.90;;;;;;4875179;29;20067;-73
2023/01/31 02:32:25;;;;;;;44.08;27.17;;;2.00;99.90;;;;;;4896861;29;20044;-72
2023/01/31 02:35:01;;;;;;;46.70;25.50;;;1.80;99.90;;;;;;4896324;29;20084;-70
2023/01/31 02:37:51;;;;;;;51.97;27.08;;;1.90;99.90;;;;;;4889909;29;20044;-70
2023/01/31 02:41:12;;;;;;;41.92;25.38;;;2.00;99.90;;;;;;4897651;29;20036;-71
2023/01/31 02:46:54;;;;;;;47.47;25.23;;;1.90;99.90;;;;;;4839422;29;19924;-72
2023/01/31 02:49:38;;;;;;;45.38;25.10;;;1.90;99.90;;;;;;4861771;29;20079;-71
2023/01/31 02:52:17;;;;;;;46.55;25.20;;;1.80;99.90;;;;;;4897002;23;20508;-71
2023/01/31 02:57:44;;;;;;;34.95;21.92;;;1.80;99.90;;;;;;4885709;29;20037;-71
2023/01/31 03:00:12;;;;;;;45.28;24.40;;;2.00;99.90;;;;;;4895880;29;20116;-71
2023/01/31 03:02:39;;;;;;;39.15;22.60;;;2.00;99.90;;;;;;4868538;29;20405;-71
2023/01/31 03:05:11;;;;;;;44.97;21.80;;;2.20;99.90;;;;;;4880655;29;20627;-71
2023/01/31 03:07:40;;;;;;;38.72;21.75;;;2.20;99.90;;;;;;4895753;29;20159;-72
2023/01/31 03:10:40;;;;;;;41.63;23.08;;;2.10;99.90;;;;;;4879910;29;20509;-73
2023/01/31 03:13:35;;;;;;;39.58;22.48;;;2.10;99.90;;;;;;4858139;29;20060;-72
2023/01/31 03:19:37;;;;;;;47.53;21.90;;;2.10;99.90;;;;;;4895246;29;20059;-70
2023/01/31 03:22:15;;;;;;;35.88;21.00;;;2.20;99.90;;;;;;4893823;29;20097;-72
2023/01/31 03:24:47;;;;;;;42.85;22.38;;;2.20;99.90;;;;;;4895278;29;20049;-70
2023/01/31 03:27:15;;;;;;;43.80;22.92;;;2.30;99.90;;;;;;4879613;29;20044;-70
2023/01/31 03:29:44;;;;;;;43.13;22.88;;;2.30;99.90;;;;;;4887482;29;20048;-72
2023/01/31 03:32:29;;;;;;;38.13;22.42;;;2.20;99.90;;;;;;4877071;29;20064;-71
2023/01/31 03:34:56;;;;;;;40.45;24.15;;;2.30;99.90;;;;;;4895827;29;20536;-72
2023/01/31 03:37:44;;;;;;;41.45;23.58;;;2.40;99.90;;;;;;4879485;29;20135;-72
2023/01/31 03:40:40;;;;;;;41.13;23.20;;;2.40;99.90;;;;;;4857866;29;20053;-73
2023/01/31 03:43:37;;;;;;;36.63;21.80;;;2.40;99.90;;;;;;4859783;29;20127;-72
2023/01/31 03:46:18;;;;;;;40.45;21.27;;;2.30;99.90;;;;;;4893012;29;20472;-71
2023/01/31 03:48:52;;;;;;;41.33;22.35;;;2.30;99.90;;;;;;4898419;23;20049;-70
2023/01/31 03:51:24;;;;;;;39.13;22.08;;;2.30;99.90;;;;;;4861307;29;20096;-72
2023/01/31 03:53:55;;;;;;;39.17;22.88;;;2.50;99.90;;;;;;4876912;29;20097;-71
2023/01/31 03:56:46;;;;;;;43.38;22.23;;;2.50;99.90;;;;;;4867552;29;20409;-73
2023/01/31 03:59:24;;;;;;;38.78;23.00;;;2.50;99.90;;;;;;4878337;29;20045;-73
2023/01/31 04:01:55;;;;;;;41.35;22.65;;;2.50;99.90;;;;;;4880198;29;20045;-71
2023/01/31 04:04:31;;;;;;;36.63;23.05;;;2.50;99.90;;;;;;4879339;29;20382;-74
2023/01/31 04:07:00;;;;;;;44.30;24.00;;;2.40;99.90;;;;;;4894022;23;20045;-72
2023/01/31 04:09:32;;;;;;;47.55;24.55;;;2.40;99.90;;;;;;4895111;29;20036;-74
2023/01/31 04:12:02;;;;;;;41.92;23.27;;;2.50;99.90;;;;;;4896024;29;20096;-73
2023/01/31 04:14:30;;;;;;;34.45;21.98;;;2.50;99.90;;;;;;4894917;29;20080;-73
2023/01/31 04:16:57;;;;;;;37.97;21.35;;;2.70;99.90;;;;;;4895020;29;20243;-73
2023/01/31 04:19:24;;;;;;;31.15;16.25;;;2.70;99.90;;;;;;4879750;29;20485;-71
2023/01/31 04:21:51;;;;;;;28.63;14.85;;;2.70;99.90;;;;;;4884957;29;20048;-72
2023/01/31 04:24:27;;;;;;;19.75;11.63;;;2.90;99.90;;;;;;4910373;29;20080;-72
2023/01/31 04:26:54;;;;;;;18.33;9.95;;;3.10;99.90;;;;;;4894791;29;20068;-75
2023/01/31 04:29:24;;;;;;;10.35;7.43;;;3.20;99.90;;;;;;4907081;29;20123;-70
2023/01/31 04:31:54;;;;;;;10.40;7.40;;;3.30;99.90;;;;;;4890613;29;20071;-71
2023/01/31 04:34:21;;;;;;;11.50;7.70;;;3.20;99.90;;;;;;4894865;29;20048;-73
2023/01/31 04:36:48;;;;;;;9.45;6.85;;;3.30;99.90;;;;;;4862974;29;20083;-73
2023/01/31 04:39:16;;;;;;;10.43;7.25;;;3.30;99.90;;;;;;4889705;29;20492;-73
2023/01/31 04:41:45;;;;;;;8.77;6.38;;;3.30;99.90;;;;;;4894196;29;20044;-70
2023/01/31 04:44:12;;;;;;;8.13;6.45;;;3.30;99.90;;;;;;4899654;29;20048;-70
2023/01/31 04:46:40;;;;;;;7.57;5.28;;;3.20;99.90;;;;;;4894956;29;20052;-70
2023/01/31 04:49:08;;;;;;;9.80;6.25;;;3.20;99.90;;;;;;4895048;29;20040;-71
2023/01/31 04:51:35;;;;;;;8.57;6.00;;;3.20;99.90;;;;;;4899794;29;20389;-72
2023/01/31 04:54:03;;;;;;;8.25;6.60;;;3.20;99.90;;;;;;4899062;29;20429;-71
2023/01/31 04:56:33;;;;;;;7.22;5.57;;;3.20;99.90;;;;;;4897542;29;20127;-72
2023/01/31 04:59:01;;;;;;;7.00;6.30;;;3.20;99.90;;;;;;4896767;29;20041;-72
2023/01/31 05:01:29;;;;;;;7.88;6.45;;;3.20;99.90;;;;;;4884949;29;20056;-70
2023/01/31 05:04:01;;;;;;;8.45;6.38;;;3.10;99.90;;;;;;4883459;29;20048;-70
2023/01/31 05:06:29;;;;;;;10.48;5.75;;;3.20;99.90;;;;;;4884100;29;20053;-72
2023/01/31 05:09:00;;;;;;;5.53;4.95;;;3.10;99.90;;;;;;4880185;29;20045;-73
2023/01/31 05:11:30;;;;;;;8.93;6.10;;;3.10;99.90;;;;;;4881412;29;20136;-73
2023/01/31 05:13:57;;;;;;;6.72;5.32;;;3.10;99.90;;;;;;4860754;29;20641;-72
2023/01/31 05:16:24;;;;;;;7.95;5.55;;;3.10;99.90;;;;;;4885667;29;20037;-71
2023/01/31 05:18:51;;;;;;;8.05;5.88;;;3.10;99.90;;;;;;4879040;29;20049;-70
2023/01/31 05:21:21;;;;;;;8.40;5.90;;;3.20;99.90;;;;;;4885704;29;20454;-73
2023/01/31 05:23:53;;;;;;;6.80;5.68;;;3.20;99.90;;;;;;4886463;29;20197;-73
2023/01/31 05:26:20;;;;;;;7.07;5.50;;;3.20;99.90;;;;;;4894596;29;20080;-71
2023/01/31 05:28:48;;;;;;;7.68;5.43;;;3.20;99.90;;;;;;4863586;29;20052;-70
2023/01/31 05:31:18;;;;;;;5.30;4.80;;;3.30;99.90;;;;;;4877633;29;20493;-71
2023/01/31 05:33:45;;;;;;;6.25;5.30;;;3.30;99.90;;;;;;4875708;29;20610;-70
2023/01/31 05:36:15;;;;;;;6.47;5.28;;;3.30;99.90;;;;;;4908482;29;20045;-70
2023/01/31 05:38:46;;;;;;;5.95;4.95;;;3.40;99.90;;;;;;4890048;29;20468;-73
2023/01/31 05:41:13;;;;;;;6.13;5.30;;;3.50;99.90;;;;;;4874839;29;20452;-71
2023/01/31 05:43:46;;;;;;;7.50;5.60;;;3.60;99.90;;;;;;4878820;29;20446;-73
2023/01/31 05:46:17;;;;;;;6.70;5.60;;;3.60;99.90;;;;;;4863172;29;20053;-72
2023/01/31 05:48:44;;;;;;;6.63;5.18;;;3.60;99.90;;;;;;4879583;29;20037;-72
2023/01/31 05:51:12;;;;;;;8.18;5.18;;;3.70;99.90;;;;;;4879421;29;20045;-70
2023/01/31 05:53:39;;;;;;;7.72;5.93;;;3.80;99.90;;;;;;4878284;29;20037;-72
2023/01/31 05:56:06;;;;;;;8.45;5.65;;;3.80;99.90;;;;;;4882073;29;20514;-68
2023/01/31 05:58:34;;;;;;;6.75;5.60;;;3.80;99.90;;;;;;4878794;29;20064;-70
2023/01/31 06:01:01;;;;;;;6.18;5.30;;;3.80;99.90;;;;;;4890868;29;20382;-72
2023/01/31 06:03:28;;;;;;;6.22;5.00;;;3.90;99.90;;;;;;4886377;29;20052;-70
2023/01/31 06:05:58;;;;;;;7.93;5.70;;;3.90;99.90;;;;;;4866834;29;20557;-72
2023/01/31 06:08:25;;;;;;;7.78;5.60;;;4.10;99.90;;;;;;4862795;29;20480;-73
2023/01/31 06:10:54;;;;;;;8.55;6.40;;;4.10;99.90;;;;;;4878092;29;20052;-73
2023/01/31 06:13:24;;;;;;;18.17;11.40;;;4.20;99.90;;;;;;4890342;29;20084;-72
2023/01/31 06:15:51;;;;;;;9.07;6.75;;;4.20;99.90;;;;;;4877461;29;20435;-69
2023/01/31 06:18:18;;;;;;;14.18;8.75;;;4.10;99.90;;;;;;4886171;23;20068;-72
2023/01/31 06:20:45;;;;;;;47.85;23.13;;;4.20;99.90;;;;;;4849672;29;20446;-73
2023/01/31 06:23:13;;;;;;;10.85;7.63;;;4.30;99.90;;;;;;4856686;29;20060;-72
2023/01/31 06:25:40;;;;;;;8.98;7.28;;;4.30;99.90;;;;;;4845505;29;20088;-75
2023/01/31 06:28:07;;;;;;;6.65;5.80;;;4.30;99.90;;;;;;4878211;29;20618;-70
2023/01/31 06:30:35;;;;;;;6.95;5.15;;;4.30;99.90;;;;;;4876919;29;20051;-68
2023/01/31 06:33:02;;;;;;;7.07;5.55;;;4.30;99.90;;;;;;4876703;29;20059;-68
2023/01/31 06:35:29;;;;;;;7.88;6.00;;;4.30;99.90;;;;;;4884626;29;20037;-70
2023/01/31 06:37:57;;;;;;;6.22;5.40;;;4.40;99.90;;;;;;4883259;29;20080;-69
2023/01/31 06:40:25;;;;;;;7.63;4.82;;;4.40;99.90;;;;;;4878394;29;20037;-67
2023/01/31 06:42:52;;;;;;;7.97;5.40;;;4.30;99.90;;;;;;4878423;29;20109;-70
2023/01/31 06:45:19;;;;;;;6.30;4.78;;;4.40;99.90;;;;;;4881199;29;20048;-70
2023/01/31 06:47:47;;;;;;;5.75;5.15;;;4.40;99.90;;;;;;4881540;29;20088;-71
2023/01/31 06:50:14;;;;;;;5.95;5.20;;;4.50;99.90;;;;;;4862152;29;20045;-67
2023/01/31 06:52:42;;;;;;;6.97;5.32;;;4.60;99.90;;;;;;4912204;23;20063;-67
2023/01/31 06:55:11;;;;;;;5.40;4.88;;;4.70;99.90;;;;;;4917002;29;20102;-69
2023/01/31 06:57:46;;;;;;;9.05;6.53;;;4.80;99.90;;;;;;4933910;29;20039;-71
2023/01/31 07:00:14;;;;;;;8.25;6.50;;;5.20;99.90;;;;;;4925674;29;20071;-69
2023/01/31 07:02:41;;;;;;;5.35;4.85;;;5.40;99.90;;;;;;4918554;29;20130;-70
2023/01/31 07:05:09;;;;;;;8.75;5.05;;;5.00;99.90;;;;;;4931795;29;20044;-71
2023/01/31 07:07:37;;;;;;;5.70;4.68;;;5.00;99.90;;;;;;4913250;29;20055;-70
2023/01/31 07:10:06;;;;;;;7.03;5.00;;;5.00;99.90;;;;;;4931281;29;20043;-68
2023/01/31 07:12:34;;;;;;;7.72;5.00;;;5.00;99.90;;;;;;4928527;29;20078;-69
2023/01/31 07:15:01;;;;;;;7.78;5.50;;;5.00;99.90;;;;;;4915028;29;20412;-71
2023/01/31 07:17:29;;;;;;;10.55;5.32;;;5.10;99.90;;;;;;4913189;29;20098;-72
2023/01/31 07:19:57;;;;;;;5.78;5.10;;;5.30;99.90;;;;;;4931654;29;20051;-71
2023/01/31 07:22:24;;;;;;;7.93;5.35;;;5.20;99.90;;;;;;4932377;29;20428;-73
2023/01/31 07:24:51;;;;;;;5.90;5.22;;;5.20;99.90;;;;;;4915430;29;20047;-71
2023/01/31 07:27:19;;;;;;;9.77;5.95;;;5.30;99.90;;;;;;4917472;29;20044;-71
2023/01/31 07:29:48;;;;;;;5.68;4.93;;;5.30;99.90;;;;;;4930482;29;20091;-70
2023/01/31 07:32:16;;;;;;;10.60;5.90;;;5.20;99.90;;;;;;4914031;29;20071;-71
2023/01/31 07:34:43;;;;;;;6.55;5.30;;;5.20;99.90;;;;;;4911530;29;20043;-71
2023/01/31 07:37:10;;;;;;;7.85;5.75;;;5.30;99.90;;;;;;4945572;29;20039;-70
2023/01/31 07:39:37;;;;;;;8.43;5.55;;;5.40;99.90;;;;;;4910997;29;20047;-71
2023/01/31 07:42:05;;;;;;;7.85;5.65;;;5.40;99.90;;;;;;4931277;29;20459;-71
2023/01/31 07:44:32;;;;;;;7.43;5.72;;;5.40;99.90;;;;;;4913285;29;20071;-70
2023/01/31 07:46:59;;;;;;;8.13;6.25;;;5.40;99.90;;;;;;4930400;29;20044;-71
2023/01/31 07:49:26;;;;;;;7.72;5.93;;;5.40;99.90;;;;;;4911059;29;20142;-72
2023/01/31 07:51:54;;;;;;;7.95;5.40;;;5.40;99.90;;;;;;4933947;29;20083;-72
2023/01/31 07:54:21;;;;;;;6.03;4.95;;;5.50;99.90;;;;;;4910886;29;20044;-72
2023/01/31 07:56:48;;;;;;;6.18;5.22;;;5.50;99.80;;;;;;4913777;29;20044;-72
2023/01/31 07:59:16;;;;;;;7.78;5.28;;;5.50;99.80;;;;;;4926907;29;20036;-70
2023/01/31 08:04:29;;;;;;;6.65;5.10;;;5.40;99.40;;;;;;4906103;29;20071;-71
2023/01/31 08:06:58;;;;;;;6.55;4.93;;;5.50;99.50;;;;;;4918775;29;20100;-71
2023/01/31 08:09:26;;;;;;;6.60;5.47;;;5.50;99.50;;;;;;4920101;23;20047;-72
2023/01/31 08:11:53;;;;;;;7.60;5.50;;;5.50;99.50;;;;;;4898359;29;20059;-72
2023/01/31 08:14:25;;;;;;;6.85;5.82;;;5.40;99.80;;;;;;4906847;29;20425;-72
2023/01/31 08:16:52;;;;;;;9.65;5.70;;;5.40;99.90;;;;;;4895467;29;20048;-71
2023/01/31 08:19:19;;;;;;;8.82;6.28;;;5.40;99.90;;;;;;4914928;29;20111;-71
2023/01/31 08:21:47;;;;;;;8.25;6.47;;;5.40;99.90;;;;;;4897391;29;20131;-72
2023/01/31 08:24:16;;;;;;;9.68;5.72;;;5.40;99.90;;;;;;4914281;29;20048;-71
2023/01/31 08:26:45;;;;;;;13.00;6.93;;;5.50;99.90;;;;;;4914537;29;20044;-72
2023/01/31 08:29:12;;;;;;;10.73;7.22;;;5.50;99.90;;;;;;4902967;29;20451;-72
2023/01/31 08:31:41;;;;;;;9.32;6.38;;;5.70;99.90;;;;;;4913805;29;20044;-71
2023/01/31 08:34:08;;;;;;;9.38;6.55;;;5.80;99.90;;;;;;4914532;29;20083;-72
2023/01/31 08:36:35;;;;;;;7.63;5.97;;;6.00;99.80;;;;;;4902403;29;20056;-72
2023/01/31 08:39:03;;;;;;;6.80;5.38;;;6.30;98.00;;;;;;4914103;29;20036;-71
2023/01/31 08:41:33;;;;;;;8.88;5.72;;;6.50;97.80;;;;;;4914282;29;20044;-71
2023/01/31 08:44:02;;;;;;;8.55;5.50;;;6.40;97.80;;;;;;4914210;29;20047;-72
2023/01/31 08:46:33;;;;;;;6.32;5.40;;;6.30;97.20;;;;;;4914614;29;20068;-73
2023/01/31 08:49:03;;;;;;;9.88;5.15;;;6.20;97.00;;;;;;4897668;29;20404;-71
2023/01/31 08:51:31;;;;;;;8.17;6.00;;;6.20;97.20;;;;;;4913514;29;20048;-72
2023/01/31 08:53:58;;;;;;;7.80;5.30;;;6.40;97.20;;;;;;4896628;29;20508;-70
2023/01/31 08:56:26;;;;;;;8.30;5.07;;;6.70;96.60;;;;;;4914306;29;20484;-72
2023/01/31 08:58:54;;;;;;;8.35;4.97;;;6.90;95.90;;;;;;4914400;29;20413;-72
2023/01/31 09:01:22;;;;;;;5.07;4.40;;;6.80;95.20;;;;;;4914689;29;20503;-72
2023/01/31 09:03:55;;;;;;;5.45;4.53;;;6.70;95.00;;;;;;4912445;29;21072;-71
2023/01/31 09:06:26;;;;;;;11.73;6.28;;;6.70;94.60;;;;;;4914484;29;20044;-72
2023/01/31 09:08:58;;;;;;;9.90;5.05;;;6.70;94.80;;;;;;4916991;29;20102;-72
2023/01/31 09:11:29;;;;;;;9.00;5.20;;;6.80;94.30;;;;;;4897564;29;20044;-70
2023/01/31 09:13:58;;;;;;;6.40;4.57;;;6.80;94.10;;;;;;4914098;29;20159;-71
2023/01/31 09:16:25;;;;;;;6.97;4.80;;;6.80;94.10;;;;;;4914543;29;20116;-71
2023/01/31 09:18:55;;;;;;;6.18;4.47;;;6.80;93.90;;;;;;4914121;29;20048;-72
2023/01/31 09:21:24;;;;;;;10.23;6.07;;;6.80;94.40;;;;;;4914162;29;20051;-72
2023/01/31 09:23:57;;;;;;;8.40;5.38;;;6.80;93.80;;;;;;4914389;29;20050;-71
2023/01/31 09:26:24;;;;;;;7.47;4.90;;;6.80;94.10;;;;;;4897081;29;20051;-72
2023/01/31 09:28:52;;;;;;;6.45;5.00;;;6.80;94.10;;;;;;4913794;29;20048;-72
2023/01/31 09:31:20;;;;;;;6.68;5.00;;;6.70;94.30;;;;;;4913948;29;20043;-71
2023/01/31 09:33:48;;;;;;;7.43;5.18;;;6.80;94.60;;;;;;4913979;29;20100;-73
2023/01/31 09:36:17;;;;;;;8.75;5.40;;;7.00;94.10;;;;;;4898437;29;20052;-72
2023/01/31 09:38:44;;;;;;;8.73;5.78;;;7.00;94.10;;;;;;4900440;29;20096;-73
2023/01/31 09:41:30;;;;;;;9.50;5.82;;;7.20;94.00;;;;;;4915800;29;20044;-70
2023/01/31 09:44:02;;;;;;;6.05;4.50;;;7.10;93.40;;;;;;4884590;29;20116;-72
2023/01/31 09:46:35;;;;;;;5.18;4.07;;;6.80;92.50;;;;;;4917400;29;20096;-70
2023/01/31 09:49:09;;;;;;;5.43;4.72;;;6.50;92.20;;;;;;4915775;29;20135;-72
2023/01/31 09:51:38;;;;;;;6.30;4.90;;;6.40;93.10;;;;;;4917387;29;20040;-71
2023/01/31 09:54:15;;;;;;;6.97;5.18;;;6.40;93.20;;;;;;4917306;29;20459;-73
2023/01/31 09:57:12;;;;;;;6.13;4.50;;;6.60;93.80;;;;;;4900780;29;20055;-71
2023/01/31 09:59:58;;;;;;;5.20;4.30;;;6.70;94.10;;;;;;4891491;29;20055;-72
2023/01/31 10:02:52;;;;;;;6.63;4.82;;;6.40;94.10;;;;;;4931084;29;20036;-71
2023/01/31 10:05:40;;;;;;;6.97;5.15;;;6.50;94.80;;;;;;4931800;29;20416;-71
2023/01/31 10:08:25;;;;;;;5.80;4.70;;;6.50;94.50;;;;;;4908935;29;20407;-72
2023/01/31 10:11:00;;;;;;;6.28;5.18;;;6.30;93.90;;;;;;4913558;29;20491;-72
2023/01/31 10:13:35;;;;;;;7.72;5.00;;;6.40;94.60;;;;;;4916776;29;20080;-69
2023/01/31 10:16:23;;;;;;;7.45;4.85;;;6.60;94.00;;;;;;4900845;29;20175;-72
2023/01/31 10:19:19;;;;;;;6.75;5.00;;;6.60;93.80;;;;;;4899915;29;20054;-75
2023/01/31 10:21:59;;;;;;;7.75;4.80;;;6.80;93.50;;;;;;4897894;29;20056;-74
2023/01/31 10:24:42;;;;;;;7.38;5.28;;;6.80;93.40;;;;;;4900160;29;20052;-74
2023/01/31 10:27:35;;;;;;;6.43;3.97;;;6.90;93.00;;;;;;4894038;29;20048;-74
2023/01/31 10:30:13;;;;;;;5.68;4.30;;;7.00;92.30;;;;;;4845417;29;20066;-72
2023/01/31 10:32:47;;;;;;;6.38;4.82;;;7.00;91.90;;;;;;4915275;29;20051;-74
2023/01/31 10:35:24;;;;;;;5.50;4.60;;;7.20;92.00;;;;;;4884483;29;20060;-75
2023/01/31 10:38:00;;;;;;;10.48;4.25;;;7.50;91.40;;;;;;4931398;29;20498;-72
2023/01/31 10:40:40;;;;;;;6.20;4.10;;;7.80;90.60;;;;;;4929206;29;20052;-73
2023/01/31 10:43:52;;;;;;;5.63;4.47;;;7.50;89.70;;;;;;4916021;29;20415;-75
2023/01/31 10:46:20;;;;;;;10.40;4.47;;;7.20;88.70;;;;;;4931637;29;20044;-74
2023/01/31 10:48:48;;;;;;;6.78;4.13;;;7.20;90.10;;;;;;4901192;29;20139;-73
2023/01/31 10:51:40;;;;;;;7.72;4.40;;;7.30;90.40;;;;;;4902309;29;20571;-73
2023/01/31 10:54:35;;;;;;;9.70;4.78;;;7.40;90.70;;;;;;4886669;29;20071;-73
2023/01/31 10:57:03;;;;;;;18.85;6.97;;;7.30;90.60;;;;;;4929090;29;20605;-72
2023/01/31 10:59:40;;;;;;;7.57;5.35;;;7.40;91.20;;;;;;4893409;29;20056;-73
2023/01/31 11:02:22;;;;;;;8.05;4.57;;;7.40;91.40;;;;;;4916185;29;20044;-75
2023/01/31 11:04:56;;;;;;;9.00;4.72;;;7.40;92.60;;;;;;4900620;29;20047;-74
2023/01/31 11:07:30;;;;;;;8.65;4.97;;;7.30;93.60;;;;;;4914270;29;20104;-73
2023/01/31 11:10:28;;;;;;;8.70;5.35;;;7.20;94.70;;;;;;4890292;29;20056;-74
2023/01/31 11:13:00;;;;;;;10.30;5.30;;;7.10;95.30;;;;;;4908274;29;20052;-72
2023/01/31 11:15:34;;;;;;;9.77;5.03;;;7.20;95.40;;;;;;4930274;29;20116;-74
2023/01/31 11:18:02;;;;;;;9.48;5.10;;;7.20;95.20;;;;;;4915707;29;20044;-73
2023/01/31 11:20:34;;;;;;;9.15;6.18;;;7.40;94.20;;;;;;4920333;29;20048;-72
2023/01/31 11:23:11;;;;;;;8.73;5.10;;;7.50;93.40;;;;;;4918736;29;20084;-75
2023/01/31 11:25:38;;;;;;;9.55;4.97;;;7.70;92.60;;;;;;4912535;29;20064;-84
2023/01/31 11:28:26;;;;;;;10.18;5.28;;;7.70;92.60;;;;;;4912964;29;20463;-81
2023/01/31 11:30:57;;;;;;;9.60;5.63;;;7.90;92.10;;;;;;4918264;29;20512;-87
2023/01/31 11:33:44;;;;;;;6.95;4.85;;;7.80;92.20;;;;;;4927466;29;20043;-82
2023/01/31 11:36:14;;;;;;;6.07;4.68;;;7.70;92.10;;;;;;4922478;29;20051;-80
2023/01/31 11:38:42;;;;;;;9.07;5.28;;;7.20;93.00;;;;;;4903768;29;20099;-76
2023/01/31 11:41:34;;;;;;;9.18;5.70;;;7.20;93.20;;;;;;4912750;29;20040;-76
2023/01/31 11:44:06;;;;;;;7.50;5.43;;;7.20;93.60;;;;;;4887864;29;20075;-72
2023/01/31 11:46:50;;;;;;;6.82;5.22;;;7.40;93.10;;;;;;4904242;29;20094;-79
2023/01/31 11:49:27;;;;;;;7.40;4.80;;;7.30;93.00;;;;;;4929468;29;20491;-72
2023/01/31 11:51:57;;;;;;;7.63;5.53;;;7.10;93.00;;;;;;4918973;29;20083;-76
2023/01/31 11:54:32;;;;;;;10.25;5.20;;;7.00;93.40;;;;;;4899592;29;20050;-79
2023/01/31 11:57:01;;;;;;;6.97;5.18;;;6.90;93.50;;;;;;4898655;29;20044;-79
2023/01/31 11:59:30;;;;;;;7.32;5.10;;;6.90;93.90;;;;;;4917703;29;20051;-79
2023/01/31 12:01:59;;;;;;;9.68;6.47;;;7.00;94.10;;;;;;4918363;29;20100;-79
2023/01/31 12:04:40;;;;;;;6.78;5.30;;;7.20;94.10;;;;;;4901082;29;20059;-79
2023/01/31 12:07:30;;;;;;;9.82;5.10;;;7.70;93.90;;;;;;4914966;29;20044;-80
2023/01/31 12:10:20;;;;;;;6.57;4.43;;;8.00;93.90;;;;;;4901987;29;20044;-73
2023/01/31 12:12:53;;;;;;;5.10;4.18;;;8.30;93.30;;;;;;4885341;29;20099;-78
2023/01/31 12:15:30;;;;;;;;;;;8.20;94.00;;;;;;4914179;29;20054;-80
2023/01/31 12:18:00;;;;;;;5.78;3.83;;;8.00;94.40;;;;;;4915481;29;19941;-72
2023/01/31 12:20:47;;;;;;;6.43;4.00;;;7.60;94.50;;;;;;4917297;29;20063;-77
2023/01/31 12:23:49;;;;;;;5.20;4.10;;;7.40;95.30;;;;;;4929757;29;20484;-76
2023/01/31 12:26:42;;;;;;;8.50;4.38;;;7.20;95.80;;;;;;4917187;29;20051;-72
2023/01/31 12:29:19;;;;;;;5.88;4.40;;;7.10;96.20;;;;;;4914793;29;20043;-73
2023/01/31 12:31:54;;;;;;;11.15;4.30;;;7.00;94.80;;;;;;4917864;29;20099;-77
2023/01/31 12:34:50;;;;;;;6.38;4.40;;;6.90;93.00;;;;;;4882638;29;20396;-71
2023/01/31 12:37:51;;;;;;;9.25;4.38;;;7.00;92.00;;;;;;4885669;29;20068;-75
2023/01/31 12:40:31;;;;;;;6.72;4.68;;;7.00;91.30;;;;;;4883158;29;20448;-78
2023/01/31 12:43:32;;;;;;;7.72;4.50;;;7.10;91.10;;;;;;4930815;29;20119;-73
2023/01/31 12:46:21;;;;;;;7.65;4.70;;;7.40;90.90;;;;;;4894127;29;20047;-70
2023/01/31 12:49:16;;;;;;;7.50;4.80;;;7.90;89.20;;;;;;4882354;29;20099;-71
2023/01/31 12:52:12;;;;;;;10.70;5.47;;;8.30;86.70;;;;;;4896695;29;20048;-71
2023/01/31 12:55:05;;;;;;;5.10;4.35;;;8.40;86.60;;;;;;4882622;29;20135;-72
2023/01/31 12:57:44;;;;;;;8.35;4.43;;;9.30;82.40;;;;;;4911328;29;20139;-73
2023/01/31 13:00:32;;;;;;;9.77;4.55;;;10.30;79.30;;;;;;4911443;29;20079;-72
2023/01/31 13:03:20;;;;;;;7.47;4.40;;;11.10;76.20;;;;;;4913105;29;20046;-72
2023/01/31 13:06:27;;;;;;;6.57;4.00;;;11.40;73.20;;;;;;4913920;29;20100;-73
2023/01/31 13:09:24;;;;;;;8.18;4.20;;;11.00;72.90;;;;;;4897833;29;20048;-72
2023/01/31 13:12:18;;;;;;;8.60;4.10;;;10.10;75.50;;;;;;4914374;29;20685;-75
2023/01/31 13:15:17;;;;;;;9.30;4.45;;;9.60;80.20;;;;;;4885344;29;20059;-73
2023/01/31 13:17:53;;;;;;;7.30;5.50;;;8.70;83.50;;;;;;4884714;29;20444;-76
2023/01/31 13:20:41;;;;;;;8.27;5.88;;;8.30;85.60;;;;;;4886424;29;20044;-73
2023/01/31 13:23:23;;;;;;;17.25;5.72;;;8.00;83.80;;;;;;4916327;29;20052;-78
2023/01/31 13:25:58;;;;;;;13.88;4.55;;;7.40;88.80;;;;;;4881898;29;20048;-74
2023/01/31 13:28:53;;;;;;;10.38;4.30;;;6.80;92.50;;;;;;4903010;29;20139;-76
2023/01/31 13:31:44;;;;;;;6.95;4.97;;;5.60;97.50;;;;;;4897588;29;20045;-70
2023/01/31 13:34:38;;;;;;;10.63;5.75;;;5.60;99.90;;;;;;4931512;29;20385;-73
2023/01/31 13:37:19;;;;;;;4.53;4.10;;;5.20;99.90;;;;;;4885001;29;20095;-75
2023/01/31 13:39:52;;;;;;;7.03;4.00;;;4.30;99.90;;;;;;4916622;29;20104;-71